Terminal Aerodrome Forecast
Issued by NWS Shreveport, LA

Home | Current Version | Previous Version | Text Only | Print | Product List | Glossary On
Versions: 1 2 3 4 5 6 7 8 9 10 11 12 13 14 15
000
FTUS44 KSHV 291746
TAFTXK
TAF
KTXK 291746Z 2918/3018 19012G18KT P6SM SKC
     FM300000 19006KT P6SM SCT150
     FM300600 20005KT 5SM -SHRA VCTS OVC025CB
     FM300900 22004KT 5SM -SHRA BR BKN003 OVC006
     FM301500 22005KT 4SM BR VCSH BKN005 OVC010=

USA.gov is the U.S. government's official web portal to all federal, state and local government web resources and services.